Mount Dora, FL (32756)

7:44 AM EST on December 06, 2016 (GMT -0500)
Mount Dora Middle School WeatherSTEM | | Change Station

Elev 177 ft 28.81 °N, 81.63 °W | Updated 3 minutes ago

Haze
Haze
75.6 °F
Feels Like 75 °F
N
5.0
Wind Variable Wind from SSW

Today
High -- | Low -- °F
--% Chance of Precip.
Yesterday
High -- | Low -- °F
Precip. -- in
Pressure 29.87 in
Visibility 5.0 miles
Clouds Few 2100 ft
Mostly Cloudy 2600 ft
Mostly Cloudy 4700 ft
Heat Index 75 °F
Dew Point 73 °F
Humidity 91%
Rainfall 0.00 in
Snow Depth Not available.
7:06 AM 5:29 PM
Waxing Crescent, 41% visible
SPECI KLEE 061240Z 20012G18KT 5SM HZ FEW021 BKN026 BKN047 24/22 A2987 RMK AO2 T02440217
Pressure 29.87 in
Visibility 5.0 miles
Clouds Few 2100 ft
Mostly Cloudy 2600 ft
Mostly Cloudy 4700 ft
Heat Index 75 °F
Dew Point 73 °F
Humidity 91%
Rainfall 0.00 in
Snow Depth Not available.
7:06 AM 5:29 PM
Waxing Crescent, 41% visible
SPECI KLEE 061240Z 20012G18KT 5SM HZ FEW021 BKN026 BKN047 24/22 A2987 RMK AO2 T02440217

10-Day Weather Forecast

Almanac

Astronomy

Dec. 06, 2016 Rise Set
Actual Time
Civil Twilight
Nautical Twilight
Astronomical Twilight
Moon
Length of Visible Light
Length of Day
Tomorrow will be .
, % of the Moon is Illuminated

Today's Extremes

State Highs State Lows

Community

WunderPhotos

Upload Photos

1,955,938 photos uploaded!

WunderBlog® & News

Nearby

Air Quality

  Air Quality AQ Index Pollutant
Not available.

Snow Depth

Station Depth Elevation

Earthquake Activity

City Distance Mag. Time & Date
Minimum magnitude displayed is 2.5.

Coastal Water Temperatures

Place Temperature

Stations

Nearby Weather Stations

Station Location Temp. Windchill Dew Point Humidity Wind Precip. Elev Updated Type
                   

Watches & Warnings

There are currently no watches in effect.